sensor_id;sensor_type;location;lat;lon;timestamp;P1;durP1;ratioP1;P2;durP2;ratioP2
23496;SDS011;11925;48.122;11.560;2023-05-10T00:01:45;1.52;;;0.80;;
23496;SDS011;11925;48.122;11.560;2023-05-10T00:04:14;2.70;;;0.85;;
23496;SDS011;11925;48.122;11.560;2023-05-10T00:06:42;1.50;;;0.75;;
23496;SDS011;11925;48.122;11.560;2023-05-10T00:09:10;2.50;;;0.93;;
23496;SDS011;11925;48.122;11.560;2023-05-10T00:11:41;2.50;;;1.00;;
23496;SDS011;11925;48.122;11.560;2023-05-10T00:14:09;3.20;;;0.95;;
23496;SDS011;11925;48.122;11.560;2023-05-10T00:16:38;2.00;;;0.60;;
23496;SDS011;11925;48.122;11.560;2023-05-10T00:19:08;1.30;;;0.70;;
23496;SDS011;11925;48.122;11.560;2023-05-10T00:21:37;2.13;;;1.00;;
23496;SDS011;11925;48.122;11.560;2023-05-10T00:24:05;1.30;;;0.70;;
23496;SDS011;11925;48.122;11.560;2023-05-10T00:26:33;1.90;;;0.70;;
23496;SDS011;11925;48.122;11.560;2023-05-10T00:29:02;0.70;;;0.70;;
23496;SDS011;11925;48.122;11.560;2023-05-10T00:31:30;1.80;;;0.95;;
23496;SDS011;11925;48.122;11.560;2023-05-10T00:33:58;1.55;;;0.60;;
23496;SDS011;11925;48.122;11.560;2023-05-10T00:36:28;2.17;;;0.70;;
23496;SDS011;11925;48.122;11.560;2023-05-10T00:38:58;1.50;;;0.52;;
23496;SDS011;11925;48.122;11.560;2023-05-10T00:41:26;4.95;;;0.80;;
23496;SDS011;11925;48.122;11.560;2023-05-10T00:43:55;0.93;;;0.57;;
23496;SDS011;11925;48.122;11.560;2023-05-10T00:46:23;1.02;;;0.60;;
23496;SDS011;11925;48.122;11.560;2023-05-10T00:48:53;1.25;;;0.70;;
23496;SDS011;11925;48.122;11.560;2023-05-10T00:51:22;3.33;;;0.70;;
23496;SDS011;11925;48.122;11.560;2023-05-10T00:53:52;1.00;;;0.68;;
23496;SDS011;11925;48.122;11.560;2023-05-10T00:56:22;2.22;;;0.70;;
23496;SDS011;11925;48.122;11.560;2023-05-10T00:58:51;0.75;;;0.50;;
23496;SDS011;11925;48.122;11.560;2023-05-10T01:01:19;1.23;;;0.65;;
23496;SDS011;11925;48.122;11.560;2023-05-10T01:03:48;1.50;;;0.70;;
23496;SDS011;11925;48.122;11.560;2023-05-10T01:06:17;2.08;;;0.80;;
23496;SDS011;11925;48.122;11.560;2023-05-10T01:08:45;0.70;;;0.50;;
23496;SDS011;11925;48.122;11.560;2023-05-10T01:11:15;0.68;;;0.40;;
23496;SDS011;11925;48.122;11.560;2023-05-10T01:13:44;1.15;;;0.50;;
23496;SDS011;11925;48.122;11.560;2023-05-10T01:16:19;0.75;;;0.50;;
23496;SDS011;11925;48.122;11.560;2023-05-10T01:18:47;1.65;;;0.50;;
23496;SDS011;11925;48.122;11.560;2023-05-10T01:21:19;2.25;;;0.60;;
23496;SDS011;11925;48.122;11.560;2023-05-10T01:24:09;0.57;;;0.40;;
23496;SDS011;11925;48.122;11.560;2023-05-10T01:27:29;0.90;;;0.38;;
23496;SDS011;11925;48.122;11.560;2023-05-10T01:30:42;1.13;;;0.50;;
23496;SDS011;11925;48.122;11.560;2023-05-10T01:33:33;1.33;;;0.43;;
23496;SDS011;11925;48.122;11.560;2023-05-10T01:36:08;0.68;;;0.28;;
23496;SDS011;11925;48.122;11.560;2023-05-10T01:38:44;1.75;;;0.40;;
23496;SDS011;11925;48.122;11.560;2023-05-10T01:41:18;0.40;;;0.30;;
23496;SDS011;11925;48.122;11.560;2023-05-10T01:43:54;0.40;;;0.30;;
23496;SDS011;11925;48.122;11.560;2023-05-10T01:46:32;1.58;;;0.60;;
23496;SDS011;11925;48.122;11.560;2023-05-10T01:49:06;2.17;;;0.40;;
23496;SDS011;11925;48.122;11.560;2023-05-10T01:51:41;0.50;;;0.30;;
23496;SDS011;11925;48.122;11.560;2023-05-10T01:54:13;1.85;;;0.30;;
23496;SDS011;11925;48.122;11.560;2023-05-10T01:56:44;0.80;;;0.30;;
23496;SDS011;11925;48.122;11.560;2023-05-10T01:59:18;0.68;;;0.30;;
23496;SDS011;11925;48.122;11.560;2023-05-10T02:01:48;1.40;;;0.63;;
23496;SDS011;11925;48.122;11.560;2023-05-10T02:04:20;1.73;;;0.40;;
23496;SDS011;11925;48.122;11.560;2023-05-10T02:06:51;0.68;;;0.40;;
23496;SDS011;11925;48.122;11.560;2023-05-10T02:09:21;1.35;;;0.50;;
23496;SDS011;11925;48.122;11.560;2023-05-10T02:11:51;1.08;;;0.30;;
23496;SDS011;11925;48.122;11.560;2023-05-10T02:14:21;2.45;;;0.32;;
23496;SDS011;11925;48.122;11.560;2023-05-10T02:16:51;1.17;;;0.50;;
23496;SDS011;11925;48.122;11.560;2023-05-10T02:19:24;0.60;;;0.32;;
23496;SDS011;11925;48.122;11.560;2023-05-10T02:21:55;0.68;;;0.40;;
23496;SDS011;11925;48.122;11.560;2023-05-10T02:24:24;0.73;;;0.40;;
23496;SDS011;11925;48.122;11.560;2023-05-10T02:26:53;1.23;;;0.60;;
23496;SDS011;11925;48.122;11.560;2023-05-10T02:29:23;1.52;;;0.40;;
23496;SDS011;11925;48.122;11.560;2023-05-10T02:31:54;1.50;;;0.40;;
23496;SDS011;11925;48.122;11.560;2023-05-10T02:34:24;0.85;;;0.45;;
23496;SDS011;11925;48.122;11.560;2023-05-10T02:39:24;0.63;;;0.60;;
23496;SDS011;11925;48.122;11.560;2023-05-10T02:41:56;0.77;;;0.50;;
23496;SDS011;11925;48.122;11.560;2023-05-10T02:44:25;1.05;;;0.40;;
23496;SDS011;11925;48.122;11.560;2023-05-10T02:46:57;1.17;;;0.60;;
23496;SDS011;11925;48.122;11.560;2023-05-10T02:49:29;0.68;;;0.35;;
23496;SDS011;11925;48.122;11.560;2023-05-10T02:51:59;0.60;;;0.43;;
23496;SDS011;11925;48.122;11.560;2023-05-10T02:54:33;2.25;;;0.40;;
23496;SDS011;11925;48.122;11.560;2023-05-10T02:57:07;1.45;;;0.50;;
23496;SDS011;11925;48.122;11.560;2023-05-10T02:59:36;0.50;;;0.40;;
23496;SDS011;11925;48.122;11.560;2023-05-10T03:02:04;1.55;;;0.40;;
23496;SDS011;11925;48.122;11.560;2023-05-10T03:04:35;1.17;;;0.40;;
23496;SDS011;11925;48.122;11.560;2023-05-10T03:07:04;1.15;;;0.35;;
23496;SDS011;11925;48.122;11.560;2023-05-10T03:09:32;0.93;;;0.40;;
23496;SDS011;11925;48.122;11.560;2023-05-10T03:12:04;1.80;;;0.50;;
23496;SDS011;11925;48.122;11.560;2023-05-10T03:14:42;0.30;;;0.30;;
23496;SDS011;11925;48.122;11.560;2023-05-10T03:17:20;1.38;;;0.60;;
23496;SDS011;11925;48.122;11.560;2023-05-10T03:19:55;0.90;;;0.50;;
23496;SDS011;11925;48.122;11.560;2023-05-10T03:22:26;1.98;;;0.50;;
23496;SDS011;11925;48.122;11.560;2023-05-10T03:24:59;1.15;;;0.40;;
23496;SDS011;11925;48.122;11.560;2023-05-10T03:27:33;0.77;;;0.20;;
23496;SDS011;11925;48.122;11.560;2023-05-10T03:30:03;0.47;;;0.20;;
23496;SDS011;11925;48.122;11.560;2023-05-10T03:32:35;1.30;;;0.38;;
23496;SDS011;11925;48.122;11.560;2023-05-10T03:35:07;0.77;;;0.40;;
23496;SDS011;11925;48.122;11.560;2023-05-10T03:37:36;0.60;;;0.30;;
23496;SDS011;11925;48.122;11.560;2023-05-10T03:40:05;0.25;;;0.25;;
23496;SDS011;11925;48.122;11.560;2023-05-10T03:45:05;0.32;;;0.30;;
23496;SDS011;11925;48.122;11.560;2023-05-10T03:47:34;1.02;;;0.30;;
23496;SDS011;11925;48.122;11.560;2023-05-10T03:50:03;1.20;;;0.38;;
23496;SDS011;11925;48.122;11.560;2023-05-10T03:52:33;2.15;;;0.32;;
23496;SDS011;11925;48.122;11.560;2023-05-10T03:55:02;1.00;;;0.30;;
23496;SDS011;11925;48.122;11.560;2023-05-10T03:57:31;1.50;;;0.30;;
23496;SDS011;11925;48.122;11.560;2023-05-10T03:59:59;0.47;;;0.30;;
23496;SDS011;11925;48.122;11.560;2023-05-10T04:02:27;0.82;;;0.30;;
23496;SDS011;11925;48.122;11.560;2023-05-10T04:04:56;0.43;;;0.30;;
23496;SDS011;11925;48.122;11.560;2023-05-10T04:07:25;1.38;;;0.30;;
23496;SDS011;11925;48.122;11.560;2023-05-10T04:09:54;0.55;;;0.40;;
23496;SDS011;11925;48.122;11.560;2023-05-10T04:12:23;0.43;;;0.15;;
23496;SDS011;11925;48.122;11.560;2023-05-10T04:14:52;0.80;;;0.20;;
23496;SDS011;11925;48.122;11.560;2023-05-10T04:17:20;0.35;;;0.20;;
23496;SDS011;11925;48.122;11.560;2023-05-10T04:19:48;1.65;;;0.32;;
23496;SDS011;11925;48.122;11.560;2023-05-10T04:22:19;0.63;;;0.30;;
23496;SDS011;11925;48.122;11.560;2023-05-10T04:24:47;1.38;;;0.30;;
23496;SDS011;11925;48.122;11.560;2023-05-10T04:27:17;1.73;;;0.30;;
23496;SDS011;11925;48.122;11.560;2023-05-10T04:29:45;0.73;;;0.32;;
23496;SDS011;11925;48.122;11.560;2023-05-10T04:32:14;0.65;;;0.30;;
23496;SDS011;11925;48.122;11.560;2023-05-10T04:34:43;0.40;;;0.20;;
23496;SDS011;11925;48.122;11.560;2023-05-10T04:37:11;1.13;;;0.30;;
23496;SDS011;11925;48.122;11.560;2023-05-10T04:39:40;0.90;;;0.30;;
23496;SDS011;11925;48.122;11.560;2023-05-10T04:42:08;0.30;;;0.30;;
23496;SDS011;11925;48.122;11.560;2023-05-10T04:44:39;1.60;;;0.30;;
23496;SDS011;11925;48.122;11.560;2023-05-10T04:47:07;0.20;;;0.10;;
23496;SDS011;11925;48.122;11.560;2023-05-10T04:49:38;0.50;;;0.30;;
23496;SDS011;11925;48.122;11.560;2023-05-10T04:52:06;0.75;;;0.22;;
23496;SDS011;11925;48.122;11.560;2023-05-10T04:54:35;2.83;;;0.40;;
23496;SDS011;11925;48.122;11.560;2023-05-10T04:57:03;5.90;;;0.60;;
23496;SDS011;11925;48.122;11.560;2023-05-10T04:59:31;2.40;;;1.20;;
23496;SDS011;11925;48.122;11.560;2023-05-10T05:02:01;1.60;;;0.60;;
23496;SDS011;11925;48.122;11.560;2023-05-10T05:04:30;1.50;;;0.60;;
23496;SDS011;11925;48.122;11.560;2023-05-10T05:06:58;2.05;;;0.50;;
23496;SDS011;11925;48.122;11.560;2023-05-10T05:09:26;0.73;;;0.40;;
23496;SDS011;11925;48.122;11.560;2023-05-10T05:11:55;2.55;;;0.55;;
23496;SDS011;11925;48.122;11.560;2023-05-10T05:14:23;1.95;;;0.50;;
23496;SDS011;11925;48.122;11.560;2023-05-10T05:16:52;0.60;;;0.30;;
23496;SDS011;11925;48.122;11.560;2023-05-10T05:19:23;1.95;;;1.05;;
23496;SDS011;11925;48.122;11.560;2023-05-10T05:21:52;2.08;;;0.50;;
23496;SDS011;11925;48.122;11.560;2023-05-10T05:24:20;2.65;;;0.60;;
23496;SDS011;11925;48.122;11.560;2023-05-10T05:26:48;1.05;;;0.40;;
23496;SDS011;11925;48.122;11.560;2023-05-10T05:29:17;0.43;;;0.30;;
23496;SDS011;11925;48.122;11.560;2023-05-10T05:31:45;0.82;;;0.30;;
23496;SDS011;11925;48.122;11.560;2023-05-10T05:34:13;0.75;;;0.40;;
23496;SDS011;11925;48.122;11.560;2023-05-10T05:36:43;1.55;;;0.50;;
23496;SDS011;11925;48.122;11.560;2023-05-10T05:39:11;1.77;;;0.47;;
23496;SDS011;11925;48.122;11.560;2023-05-10T05:41:40;0.75;;;0.30;;
23496;SDS011;11925;48.122;11.560;2023-05-10T05:44:08;1.90;;;0.30;;
23496;SDS011;11925;48.122;11.560;2023-05-10T05:46:37;1.48;;;0.40;;
23496;SDS011;11925;48.122;11.560;2023-05-10T05:49:05;2.33;;;0.30;;
23496;SDS011;11925;48.122;11.560;2023-05-10T05:51:33;2.42;;;0.45;;
23496;SDS011;11925;48.122;11.560;2023-05-10T05:54:03;2.00;;;0.80;;
23496;SDS011;11925;48.122;11.560;2023-05-10T05:56:31;1.67;;;0.40;;
23496;SDS011;11925;48.122;11.560;2023-05-10T05:59:00;1.38;;;0.50;;
23496;SDS011;11925;48.122;11.560;2023-05-10T06:01:28;1.02;;;0.40;;
23496;SDS011;11925;48.122;11.560;2023-05-10T06:03:56;0.80;;;0.40;;
23496;SDS011;11925;48.122;11.560;2023-05-10T06:06:25;1.45;;;0.43;;
23496;SDS011;11925;48.122;11.560;2023-05-10T06:08:53;1.25;;;0.43;;
23496;SDS011;11925;48.122;11.560;2023-05-10T06:11:23;5.05;;;0.60;;
23496;SDS011;11925;48.122;11.560;2023-05-10T06:13:51;0.80;;;0.60;;
23496;SDS011;11925;48.122;11.560;2023-05-10T06:16:20;1.58;;;0.50;;
23496;SDS011;11925;48.122;11.560;2023-05-10T06:18:48;1.30;;;0.60;;
23496;SDS011;11925;48.122;11.560;2023-05-10T06:21:17;2.28;;;0.50;;
23496;SDS011;11925;48.122;11.560;2023-05-10T06:23:46;0.75;;;0.50;;
23496;SDS011;11925;48.122;11.560;2023-05-10T06:26:14;0.60;;;0.40;;
23496;SDS011;11925;48.122;11.560;2023-05-10T06:28:44;3.08;;;0.60;;
23496;SDS011;11925;48.122;11.560;2023-05-10T06:31:12;1.02;;;0.40;;
23496;SDS011;11925;48.122;11.560;2023-05-10T06:33:41;1.52;;;0.40;;
23496;SDS011;11925;48.122;11.560;2023-05-10T06:36:09;1.23;;;0.50;;
23496;SDS011;11925;48.122;11.560;2023-05-10T06:38:37;2.78;;;0.68;;
23496;SDS011;11925;48.122;11.560;2023-05-10T06:41:05;2.10;;;0.73;;
23496;SDS011;11925;48.122;11.560;2023-05-10T06:43:34;0.95;;;0.60;;
23496;SDS011;11925;48.122;11.560;2023-05-10T06:46:07;2.25;;;0.60;;
23496;SDS011;11925;48.122;11.560;2023-05-10T06:48:36;3.65;;;0.93;;
23496;SDS011;11925;48.122;11.560;2023-05-10T06:51:04;1.80;;;0.60;;
23496;SDS011;11925;48.122;11.560;2023-05-10T06:53:32;1.17;;;0.57;;
23496;SDS011;11925;48.122;11.560;2023-05-10T06:56:01;2.10;;;0.57;;
23496;SDS011;11925;48.122;11.560;2023-05-10T06:58:30;2.28;;;0.60;;
23496;SDS011;11925;48.122;11.560;2023-05-10T07:01:02;1.95;;;0.77;;
23496;SDS011;11925;48.122;11.560;2023-05-10T07:03:33;2.97;;;1.02;;
23496;SDS011;11925;48.122;11.560;2023-05-10T07:06:01;3.47;;;1.20;;
23496;SDS011;11925;48.122;11.560;2023-05-10T07:08:30;3.20;;;1.02;;
23496;SDS011;11925;48.122;11.560;2023-05-10T07:10:59;1.40;;;0.70;;
23496;SDS011;11925;48.122;11.560;2023-05-10T07:13:28;2.33;;;0.70;;
23496;SDS011;11925;48.122;11.560;2023-05-10T07:15:57;1.70;;;0.70;;
23496;SDS011;11925;48.122;11.560;2023-05-10T07:18:26;1.30;;;0.70;;
23496;SDS011;11925;48.122;11.560;2023-05-10T07:20:56;2.70;;;0.80;;
23496;SDS011;11925;48.122;11.560;2023-05-10T07:23:25;2.65;;;0.90;;
23496;SDS011;11925;48.122;11.560;2023-05-10T07:25:53;2.75;;;1.05;;
23496;SDS011;11925;48.122;11.560;2023-05-10T07:28:23;1.42;;;0.70;;
23496;SDS011;11925;48.122;11.560;2023-05-10T07:30:52;1.30;;;0.82;;
23496;SDS011;11925;48.122;11.560;2023-05-10T07:33:20;1.63;;;0.68;;
23496;SDS011;11925;48.122;11.560;2023-05-10T07:35:49;2.15;;;0.90;;
23496;SDS011;11925;48.122;11.560;2023-05-10T07:38:19;2.65;;;0.68;;
23496;SDS011;11925;48.122;11.560;2023-05-10T07:40:47;3.63;;;0.80;;
23496;SDS011;11925;48.122;11.560;2023-05-10T07:43:15;1.20;;;0.70;;
23496;SDS011;11925;48.122;11.560;2023-05-10T07:45:44;1.25;;;0.70;;
23496;SDS011;11925;48.122;11.560;2023-05-10T07:48:12;1.83;;;0.85;;
23496;SDS011;11925;48.122;11.560;2023-05-10T07:50:41;2.97;;;0.70;;
23496;SDS011;11925;48.122;11.560;2023-05-10T07:53:09;1.77;;;0.70;;
23496;SDS011;11925;48.122;11.560;2023-05-10T07:55:38;1.83;;;0.98;;
23496;SDS011;11925;48.122;11.560;2023-05-10T07:58:07;2.20;;;0.80;;
23496;SDS011;11925;48.122;11.560;2023-05-10T08:00:35;3.03;;;0.70;;
23496;SDS011;11925;48.122;11.560;2023-05-10T08:03:05;1.80;;;0.98;;
23496;SDS011;11925;48.122;11.560;2023-05-10T08:05:34;1.95;;;0.90;;
23496;SDS011;11925;48.122;11.560;2023-05-10T08:08:02;2.45;;;0.95;;
23496;SDS011;11925;48.122;11.560;2023-05-10T08:10:31;1.35;;;0.57;;
23496;SDS011;11925;48.122;11.560;2023-05-10T08:13:01;1.27;;;0.60;;
23496;SDS011;11925;48.122;11.560;2023-05-10T08:15:29;1.30;;;0.80;;
23496;SDS011;11925;48.122;11.560;2023-05-10T08:17:58;1.40;;;0.85;;
23496;SDS011;11925;48.122;11.560;2023-05-10T08:20:26;1.48;;;0.60;;
23496;SDS011;11925;48.122;11.560;2023-05-10T08:22:55;1.92;;;0.90;;
23496;SDS011;11925;48.122;11.560;2023-05-10T08:25:23;2.00;;;0.80;;
23496;SDS011;11925;48.122;11.560;2023-05-10T08:27:52;2.25;;;0.80;;
23496;SDS011;11925;48.122;11.560;2023-05-10T08:30:22;2.45;;;0.82;;
23496;SDS011;11925;48.122;11.560;2023-05-10T08:32:50;1.50;;;0.82;;
23496;SDS011;11925;48.122;11.560;2023-05-10T08:35:19;1.63;;;0.63;;
23496;SDS011;11925;48.122;11.560;2023-05-10T08:37:47;1.30;;;0.60;;
23496;SDS011;11925;48.122;11.560;2023-05-10T08:40:15;2.33;;;0.57;;
23496;SDS011;11925;48.122;11.560;2023-05-10T08:42:47;1.97;;;0.50;;
23496;SDS011;11925;48.122;11.560;2023-05-10T08:45:22;0.52;;;0.40;;
23496;SDS011;11925;48.122;11.560;2023-05-10T08:47:52;3.65;;;0.95;;
23496;SDS011;11925;48.122;11.560;2023-05-10T08:50:21;2.63;;;0.73;;
23496;SDS011;11925;48.122;11.560;2023-05-10T08:52:50;1.25;;;0.70;;
23496;SDS011;11925;48.122;11.560;2023-05-10T08:55:23;1.88;;;0.77;;
23496;SDS011;11925;48.122;11.560;2023-05-10T08:57:51;1.10;;;0.60;;
23496;SDS011;11925;48.122;11.560;2023-05-10T09:00:20;3.83;;;0.80;;
23496;SDS011;11925;48.122;11.560;2023-05-10T09:02:51;1.83;;;0.80;;
23496;SDS011;11925;48.122;11.560;2023-05-10T09:05:19;1.40;;;0.60;;
23496;SDS011;11925;48.122;11.560;2023-05-10T09:07:48;1.60;;;0.85;;
23496;SDS011;11925;48.122;11.560;2023-05-10T09:10:17;1.05;;;0.63;;
23496;SDS011;11925;48.122;11.560;2023-05-10T09:12:46;1.35;;;0.70;;
23496;SDS011;11925;48.122;11.560;2023-05-10T09:15:15;1.40;;;0.80;;
23496;SDS011;11925;48.122;11.560;2023-05-10T09:17:47;1.17;;;0.77;;
23496;SDS011;11925;48.122;11.560;2023-05-10T09:20:17;1.33;;;0.80;;
23496;SDS011;11925;48.122;11.560;2023-05-10T09:22:46;2.13;;;0.70;;
23496;SDS011;11925;48.122;11.560;2023-05-10T09:25:15;1.77;;;0.60;;
23496;SDS011;11925;48.122;11.560;2023-05-10T09:27:46;2.67;;;0.80;;
23496;SDS011;11925;48.122;11.560;2023-05-10T09:30:15;0.90;;;0.70;;
23496;SDS011;11925;48.122;11.560;2023-05-10T09:32:47;2.47;;;0.52;;
23496;SDS011;11925;48.122;11.560;2023-05-10T09:35:17;1.48;;;0.50;;
23496;SDS011;11925;48.122;11.560;2023-05-10T09:40:17;4.65;;;1.80;;
23496;SDS011;11925;48.122;11.560;2023-05-10T09:42:53;4.40;;;1.42;;
23496;SDS011;11925;48.122;11.560;2023-05-10T09:45:23;4.10;;;1.42;;
23496;SDS011;11925;48.122;11.560;2023-05-10T09:47:53;4.03;;;1.20;;
23496;SDS011;11925;48.122;11.560;2023-05-10T09:50:22;2.78;;;1.38;;
23496;SDS011;11925;48.122;11.560;2023-05-10T09:52:51;3.72;;;1.80;;
23496;SDS011;11925;48.122;11.560;2023-05-10T09:55:22;4.47;;;1.80;;
23496;SDS011;11925;48.122;11.560;2023-05-10T09:57:58;3.63;;;1.40;;
23496;SDS011;11925;48.122;11.560;2023-05-10T10:00:28;3.13;;;1.02;;
23496;SDS011;11925;48.122;11.560;2023-05-10T10:03:05;2.05;;;0.82;;
23496;SDS011;11925;48.122;11.560;2023-05-10T10:05:34;2.03;;;1.03;;
23496;SDS011;11925;48.122;11.560;2023-05-10T10:08:04;1.77;;;0.73;;
23496;SDS011;11925;48.122;11.560;2023-05-10T10:10:33;1.40;;;0.82;;
23496;SDS011;11925;48.122;11.560;2023-05-10T10:13:02;1.08;;;0.60;;
23496;SDS011;11925;48.122;11.560;2023-05-10T10:15:31;3.00;;;0.80;;
23496;SDS011;11925;48.122;11.560;2023-05-10T10:18:01;1.80;;;0.90;;
23496;SDS011;11925;48.122;11.560;2023-05-10T10:20:32;1.40;;;0.90;;
23496;SDS011;11925;48.122;11.560;2023-05-10T10:23:00;2.75;;;1.00;;
23496;SDS011;11925;48.122;11.560;2023-05-10T10:25:28;1.60;;;0.90;;
23496;SDS011;11925;48.122;11.560;2023-05-10T10:28:00;1.98;;;0.60;;
23496;SDS011;11925;48.122;11.560;2023-05-10T10:30:46;1.13;;;0.90;;
23496;SDS011;11925;48.122;11.560;2023-05-10T10:33:33;2.03;;;0.68;;
23496;SDS011;11925;48.122;11.560;2023-05-10T10:36:09;1.42;;;0.60;;
23496;SDS011;11925;48.122;11.560;2023-05-10T10:38:54;1.30;;;0.70;;
23496;SDS011;11925;48.122;11.560;2023-05-10T10:41:30;1.48;;;0.60;;
23496;SDS011;11925;48.122;11.560;2023-05-10T10:49:52;1.58;;;0.77;;
23496;SDS011;11925;48.122;11.560;2023-05-10T10:52:32;2.20;;;0.90;;
23496;SDS011;11925;48.122;11.560;2023-05-10T10:55:02;1.00;;;0.70;;
23496;SDS011;11925;48.122;11.560;2023-05-10T10:57:33;3.58;;;0.73;;
23496;SDS011;11925;48.122;11.560;2023-05-10T11:00:18;2.15;;;0.70;;
23496;SDS011;11925;48.122;11.560;2023-05-10T11:02:49;1.52;;;0.60;;
23496;SDS011;11925;48.122;11.560;2023-05-10T11:08:17;4.03;;;1.20;;
23496;SDS011;11925;48.122;11.560;2023-05-10T11:10:52;3.63;;;1.30;;
23496;SDS011;11925;48.122;11.560;2023-05-10T11:13:32;2.83;;;1.33;;
23496;SDS011;11925;48.122;11.560;2023-05-10T11:16:15;5.57;;;1.40;;
23496;SDS011;11925;48.122;11.560;2023-05-10T11:18:54;5.72;;;2.28;;
23496;SDS011;11925;48.122;11.560;2023-05-10T11:21:26;8.20;;;2.08;;
23496;SDS011;11925;48.122;11.560;2023-05-10T11:23:56;3.80;;;1.52;;
23496;SDS011;11925;48.122;11.560;2023-05-10T11:26:30;1.92;;;0.98;;
23496;SDS011;11925;48.122;11.560;2023-05-10T11:28:59;3.33;;;1.30;;
23496;SDS011;11925;48.122;11.560;2023-05-10T11:31:29;3.05;;;1.30;;
23496;SDS011;11925;48.122;11.560;2023-05-10T11:33:59;2.25;;;1.20;;
23496;SDS011;11925;48.122;11.560;2023-05-10T11:36:28;7.68;;;3.47;;
23496;SDS011;11925;48.122;11.560;2023-05-10T11:38:59;6.05;;;2.85;;
23496;SDS011;11925;48.122;11.560;2023-05-10T11:41:28;7.45;;;2.30;;
23496;SDS011;11925;48.122;11.560;2023-05-10T11:43:58;5.93;;;2.35;;
23496;SDS011;11925;48.122;11.560;2023-05-10T11:46:27;8.43;;;2.40;;
23496;SDS011;11925;48.122;11.560;2023-05-10T11:48:57;5.43;;;2.47;;
23496;SDS011;11925;48.122;11.560;2023-05-10T11:51:28;4.32;;;1.88;;
23496;SDS011;11925;48.122;11.560;2023-05-10T11:53:59;5.55;;;1.95;;
23496;SDS011;11925;48.122;11.560;2023-05-10T11:56:27;3.00;;;1.60;;
23496;SDS011;11925;48.122;11.560;2023-05-10T11:58:56;3.03;;;1.45;;
23496;SDS011;11925;48.122;11.560;2023-05-10T12:01:26;2.35;;;1.25;;
23496;SDS011;11925;48.122;11.560;2023-05-10T12:03:55;5.35;;;1.77;;
23496;SDS011;11925;48.122;11.560;2023-05-10T12:06:27;2.65;;;0.90;;
23496;SDS011;11925;48.122;11.560;2023-05-10T12:09:01;2.78;;;1.02;;
23496;SDS011;11925;48.122;11.560;2023-05-10T12:11:36;2.58;;;0.88;;
23496;SDS011;11925;48.122;11.560;2023-05-10T12:14:09;2.33;;;1.00;;
23496;SDS011;11925;48.122;11.560;2023-05-10T12:16:37;2.55;;;0.98;;
23496;SDS011;11925;48.122;11.560;2023-05-10T12:19:06;2.05;;;0.90;;
23496;SDS011;11925;48.122;11.560;2023-05-10T12:21:34;3.65;;;1.00;;
23496;SDS011;11925;48.122;11.560;2023-05-10T12:24:06;2.63;;;1.10;;
23496;SDS011;11925;48.122;11.560;2023-05-10T12:26:35;4.03;;;1.08;;
23496;SDS011;11925;48.122;11.560;2023-05-10T12:29:13;4.50;;;1.35;;
23496;SDS011;11925;48.122;11.560;2023-05-10T12:31:52;6.10;;;1.45;;
23496;SDS011;11925;48.122;11.560;2023-05-10T12:34:25;2.03;;;0.95;;
23496;SDS011;11925;48.122;11.560;2023-05-10T12:36:53;4.03;;;1.23;;
23496;SDS011;11925;48.122;11.560;2023-05-10T12:39:24;2.53;;;1.40;;
23496;SDS011;11925;48.122;11.560;2023-05-10T12:41:52;3.60;;;1.10;;
23496;SDS011;11925;48.122;11.560;2023-05-10T12:44:21;3.60;;;1.33;;
23496;SDS011;11925;48.122;11.560;2023-05-10T12:46:49;2.70;;;1.15;;
23496;SDS011;11925;48.122;11.560;2023-05-10T12:49:17;4.45;;;1.17;;
23496;SDS011;11925;48.122;11.560;2023-05-10T12:51:46;3.05;;;1.33;;
23496;SDS011;11925;48.122;11.560;2023-05-10T12:54:14;3.97;;;1.13;;
23496;SDS011;11925;48.122;11.560;2023-05-10T12:56:44;1.40;;;0.80;;
23496;SDS011;11925;48.122;11.560;2023-05-10T12:59:12;3.33;;;1.02;;
23496;SDS011;11925;48.122;11.560;2023-05-10T13:01:41;2.35;;;0.93;;
23496;SDS011;11925;48.122;11.560;2023-05-10T13:04:09;2.97;;;1.10;;
23496;SDS011;11925;48.122;11.560;2023-05-10T13:06:37;3.50;;;1.00;;
23496;SDS011;11925;48.122;11.560;2023-05-10T13:09:06;3.67;;;1.00;;
23496;SDS011;11925;48.122;11.560;2023-05-10T13:11:34;4.47;;;1.13;;
23496;SDS011;11925;48.122;11.560;2023-05-10T13:14:04;3.22;;;1.27;;
23496;SDS011;11925;48.122;11.560;2023-05-10T13:16:32;2.28;;;1.10;;
23496;SDS011;11925;48.122;11.560;2023-05-10T13:19:01;2.85;;;1.00;;
23496;SDS011;11925;48.122;11.560;2023-05-10T13:21:29;2.70;;;0.98;;
23496;SDS011;11925;48.122;11.560;2023-05-10T13:23:57;2.30;;;1.10;;
23496;SDS011;11925;48.122;11.560;2023-05-10T13:26:26;4.22;;;1.35;;
23496;SDS011;11925;48.122;11.560;2023-05-10T13:28:55;1.70;;;0.98;;
23496;SDS011;11925;48.122;11.560;2023-05-10T13:31:24;3.85;;;1.27;;
23496;SDS011;11925;48.122;11.560;2023-05-10T13:33:53;3.45;;;1.20;;
23496;SDS011;11925;48.122;11.560;2023-05-10T13:36:21;2.78;;;1.20;;
23496;SDS011;11925;48.122;11.560;2023-05-10T13:38:49;2.78;;;1.50;;
23496;SDS011;11925;48.122;11.560;2023-05-10T13:41:18;3.92;;;1.00;;
23496;SDS011;11925;48.122;11.560;2023-05-10T13:43:46;2.72;;;1.00;;
23496;SDS011;11925;48.122;11.560;2023-05-10T13:46:15;2.05;;;0.98;;
23496;SDS011;11925;48.122;11.560;2023-05-10T13:48:45;2.30;;;1.00;;
23496;SDS011;11925;48.122;11.560;2023-05-10T13:51:13;2.28;;;1.10;;
23496;SDS011;11925;48.122;11.560;2023-05-10T13:53:41;2.75;;;1.15;;
23496;SDS011;11925;48.122;11.560;2023-05-10T13:56:10;2.50;;;1.10;;
23496;SDS011;11925;48.122;11.560;2023-05-10T13:58:38;3.95;;;1.10;;
23496;SDS011;11925;48.122;11.560;2023-05-10T14:01:06;4.63;;;1.02;;
23496;SDS011;11925;48.122;11.560;2023-05-10T14:03:35;3.00;;;1.20;;
23496;SDS011;11925;48.122;11.560;2023-05-10T14:06:05;2.10;;;0.82;;
23496;SDS011;11925;48.122;11.560;2023-05-10T14:08:34;4.15;;;1.10;;
23496;SDS011;11925;48.122;11.560;2023-05-10T14:11:02;3.67;;;1.13;;
23496;SDS011;11925;48.122;11.560;2023-05-10T14:13:31;2.67;;;0.70;;
23496;SDS011;11925;48.122;11.560;2023-05-10T14:15:59;4.07;;;1.00;;
23496;SDS011;11925;48.122;11.560;2023-05-10T14:18:28;2.33;;;0.93;;
23496;SDS011;11925;48.122;11.560;2023-05-10T14:20:57;1.55;;;1.15;;
23496;SDS011;11925;48.122;11.560;2023-05-10T14:23:26;2.33;;;0.85;;
23496;SDS011;11925;48.122;11.560;2023-05-10T14:25:55;2.03;;;0.93;;
23496;SDS011;11925;48.122;11.560;2023-05-10T14:28:23;2.92;;;1.05;;
23496;SDS011;11925;48.122;11.560;2023-05-10T14:30:52;2.35;;;0.95;;
23496;SDS011;11925;48.122;11.560;2023-05-10T14:33:20;2.20;;;0.95;;
23496;SDS011;11925;48.122;11.560;2023-05-10T14:35:49;3.10;;;0.90;;
23496;SDS011;11925;48.122;11.560;2023-05-10T14:38:17;1.55;;;0.90;;
23496;SDS011;11925;48.122;11.560;2023-05-10T14:40:47;1.77;;;0.77;;
23496;SDS011;11925;48.122;11.560;2023-05-10T14:43:15;2.72;;;0.90;;
23496;SDS011;11925;48.122;11.560;2023-05-10T14:45:44;1.38;;;0.80;;
23496;SDS011;11925;48.122;11.560;2023-05-10T14:48:13;3.60;;;1.63;;
23496;SDS011;11925;48.122;11.560;2023-05-10T14:50:44;2.95;;;1.55;;
23496;SDS011;11925;48.122;11.560;2023-05-10T14:53:13;2.10;;;1.20;;
23496;SDS011;11925;48.122;11.560;2023-05-10T14:55:41;2.22;;;1.00;;
23496;SDS011;11925;48.122;11.560;2023-05-10T14:58:11;3.03;;;2.15;;
23496;SDS011;11925;48.122;11.560;2023-05-10T15:00:39;2.80;;;1.73;;
23496;SDS011;11925;48.122;11.560;2023-05-10T15:03:08;2.17;;;1.10;;
23496;SDS011;11925;48.122;11.560;2023-05-10T15:05:37;3.15;;;1.20;;
23496;SDS011;11925;48.122;11.560;2023-05-10T15:08:06;2.45;;;0.93;;